Time;durP1;ratioP1;P1;durP2;ratioP2;P2;SDS_P1;SDS_P2;PMS_P1;PMS_P2;Temp;Humidity;BMP_temperature;BMP_pressure;BME280_temperature;BME280_humidity;BME280_pressure;Samples;Min_cycle;Max_cycle;Signal;HPM_P1;HPM_P2
2021/06/18 00:00:16;;;;;;;5.50;4.55;;;;;;;20.89;53.29;96869.99;1674457;85;20935;-79
2021/06/18 00:02:44;;;;;;;5.25;4.78;;;;;;;20.87;53.12;96868.91;1660777;84;21039;-80
2021/06/18 00:05:11;;;;;;;5.25;4.72;;;;;;;20.87;53.45;96867.59;1662938;86;21002;-80
2021/06/18 00:07:37;;;;;;;5.35;4.85;;;;;;;20.85;53.79;96868.34;1662546;86;20949;-80
2021/06/18 00:10:05;;;;;;;5.55;5.05;;;;;;;20.80;53.65;96866.91;1663031;86;20953;-80
2021/06/18 00:12:31;;;;;;;5.37;4.87;;;;;;;20.77;53.83;96859.98;1662821;86;21266;-80
2021/06/18 00:14:59;;;;;;;6.35;4.90;;;;;;;20.73;53.89;96853.05;1663022;86;20945;-80
2021/06/18 00:17:27;;;;;;;5.67;4.80;;;;;;;20.70;53.73;96856.16;1663112;86;20984;-80
2021/06/18 00:19:53;;;;;;;6.00;4.60;;;;;;;20.72;53.75;96852.77;1655426;86;21301;-80
2021/06/18 00:22:18;;;;;;;4.72;4.30;;;;;;;20.71;53.88;96855.64;1659022;86;20921;-80
2021/06/18 00:24:44;;;;;;;5.47;4.83;;;;;;;20.68;53.83;96856.92;1663157;86;20921;-80
2021/06/18 00:27:10;;;;;;;6.17;5.20;;;;;;;20.67;53.49;96856.63;1655007;86;20925;-80
2021/06/18 00:29:35;;;;;;;7.20;5.47;;;;;;;20.67;54.04;96852.16;1663087;86;20925;-80
2021/06/18 00:32:01;;;;;;;6.75;4.90;;;;;;;20.68;53.78;96851.64;1662942;85;21001;-80
2021/06/18 00:34:27;;;;;;;5.95;4.80;;;;;;;20.68;53.77;96849.80;1655148;87;21686;-80
2021/06/18 00:36:53;;;;;;;5.30;4.45;;;;;;;20.68;54.02;96847.67;1659468;86;21301;-80
2021/06/18 00:39:19;;;;;;;6.12;4.80;;;;;;;20.66;53.85;96853.19;1662679;86;21049;-81
2021/06/18 00:41:45;;;;;;;6.35;4.90;;;;;;;20.68;53.92;96847.67;1655027;86;20998;-80
2021/06/18 00:44:11;;;;;;;6.08;5.08;;;;;;;20.71;53.50;96851.16;1645241;86;20953;-80
2021/06/18 00:46:36;;;;;;;5.40;4.80;;;;;;;20.72;53.70;96839.56;1650214;86;20898;-80
2021/06/18 00:49:02;;;;;;;5.75;4.65;;;;;;;20.73;53.46;96847.77;1654931;86;21301;-80
2021/06/18 00:51:28;;;;;;;7.47;5.10;;;;;;;20.74;53.45;96846.73;1594022;88;21322;-80
2021/06/18 00:53:54;;;;;;;5.45;4.95;;;;;;;20.73;53.50;96842.48;1649624;86;20957;-80
2021/06/18 00:56:21;;;;;;;5.12;4.62;;;;;;;20.73;53.64;96841.68;1643902;86;20937;-80
2021/06/18 00:58:47;;;;;;;5.10;4.60;;;;;;;20.73;53.38;96836.40;1655082;86;20984;-80
2021/06/18 01:01:14;;;;;;;4.87;4.47;;;;;;;20.74;53.59;96836.69;1651654;85;21067;-80
2021/06/18 01:03:40;;;;;;;4.95;4.45;;;;;;;20.72;53.87;96836.92;1629416;86;21265;-80
2021/06/18 01:06:06;;;;;;;5.08;4.60;;;;;;;20.69;53.59;96837.39;1648061;86;20945;-80
2021/06/18 01:08:43;;;;;;;5.65;4.97;;;;;;;20.67;54.46;96836.83;1657356;86;20968;-80
2021/06/18 01:11:44;;;;;;;5.35;4.83;;;;;;;20.62;54.35;96836.71;1616500;88;20944;-80
2021/06/18 01:14:29;;;;;;;5.58;5.08;;;;;;;20.56;54.36;96827.90;1655184;86;21016;-81
2021/06/18 01:17:02;;;;;;;5.15;4.58;;;;;;;20.52;54.68;96833.88;1662947;86;20984;-79
2021/06/18 01:19:39;;;;;;;5.35;4.65;;;;;;;20.45;54.16;96830.04;1637210;87;20979;-79
2021/06/18 01:22:11;;;;;;;5.00;4.55;;;;;;;20.43;54.44;96826.83;1655649;87;21310;-79
2021/06/18 01:24:51;;;;;;;5.55;4.92;;;;;;;20.42;54.69;96829.19;1643889;87;21257;-79
2021/06/18 01:27:35;;;;;;;4.70;4.28;;;;;;;20.38;54.95;96824.88;1623495;87;20926;-81
2021/06/18 01:30:14;;;;;;;5.33;4.83;;;;;;;20.32;54.80;96822.34;1638853;87;21321;-80
2021/06/18 01:32:49;;;;;;;6.55;4.85;;;;;;;20.29;54.91;96822.29;1655406;86;21305;-79
2021/06/18 01:35:18;;;;;;;6.17;5.00;;;;;;;20.25;55.02;96819.84;1655635;87;20982;-80
2021/06/18 01:37:47;;;;;;;5.62;5.12;;;;;;;20.26;54.48;96824.59;1655165;87;20972;-80
2021/06/18 01:40:13;;;;;;;5.30;4.80;;;;;;;20.32;54.82;96822.34;1660132;86;21131;-80
2021/06/18 01:42:41;;;;;;;5.58;4.95;;;;;;;20.32;55.07;96814.42;1651105;86;20936;-80
2021/06/18 01:45:11;;;;;;;4.92;4.53;;;;;;;20.28;54.86;96818.56;1621924;88;21325;-80
2021/06/18 01:47:38;;;;;;;5.95;4.75;;;;;;;20.27;55.36;96818.28;1637039;86;20916;-80
2021/06/18 01:50:04;;;;;;;5.58;5.08;;;;;;;20.24;55.50;96820.08;1666388;86;20966;-80
2021/06/18 01:52:30;;;;;;;7.47;5.58;;;;;;;20.16;55.81;96826.48;1634614;87;21016;-80
2021/06/18 01:54:56;;;;;;;5.60;5.10;;;;;;;20.08;56.90;96832.13;1662854;85;20990;-80
2021/06/18 01:57:22;;;;;;;6.40;5.00;;;;;;;19.98;57.50;96834.53;1655195;86;20993;-80
2021/06/18 01:59:48;;;;;;;5.75;5.15;;;;;;;19.87;57.79;96834.05;1642148;86;21254;-80
2021/06/18 02:02:13;;;;;;;5.33;4.83;;;;;;;19.76;57.98;96837.75;1652236;85;21023;-80
2021/06/18 02:04:40;;;;;;;5.20;4.70;;;;;;;19.71;58.24;96834.20;1651618;86;20988;-80
2021/06/18 02:07:05;;;;;;;5.80;5.15;;;;;;;19.64;58.62;96839.56;1640612;85;20977;-80
2021/06/18 02:09:33;;;;;;;6.60;4.78;;;;;;;19.58;58.75;96841.00;1678355;85;21028;-80
2021/06/18 02:11:58;;;;;;;7.40;4.95;;;;;;;19.48;59.19;96827.02;1674166;85;20954;-80
2021/06/18 02:14:27;;;;;;;5.85;5.05;;;;;;;19.38;59.21;96830.75;1674734;86;20939;-80
2021/06/18 02:17:00;;;;;;;5.83;5.33;;;;;;;19.32;59.38;96830.31;1674628;85;20979;-80
2021/06/18 02:19:25;;;;;;;;;;;;;;;19.24;59.28;96830.13;1676932;85;21006;-80
2021/06/18 02:21:53;;;;;;;5.55;5.05;;;;;;;19.17;59.40;96836.80;1674718;85;20299;-80
2021/06/18 02:24:22;;;;;;;5.92;5.33;;;;;;;19.08;59.61;96836.05;1674573;85;21284;-80
2021/06/18 02:26:47;;;;;;;6.67;5.42;;;;;;;19.00;59.65;96842.92;1674504;85;21324;-80
2021/06/18 02:29:13;;;;;;;6.28;5.62;;;;;;;18.91;60.09;96838.50;1674736;85;20975;-80
2021/06/18 02:31:39;;;;;;;5.92;5.40;;;;;;;18.81;60.05;96842.97;1673372;85;21016;-80
2021/06/18 02:34:09;;;;;;;6.58;5.47;;;;;;;18.77;60.13;96846.27;1673427;85;20927;-80
2021/06/18 02:36:37;;;;;;;5.58;5.08;;;;;;;18.75;60.62;96841.75;1674634;85;20987;-80
2021/06/18 02:39:07;;;;;;;6.85;5.58;;;;;;;18.71;60.52;96839.25;1665093;86;21403;-80
2021/06/18 02:41:33;;;;;;;6.00;5.40;;;;;;;18.66;60.72;96838.60;1645658;86;21345;-80
2021/06/18 02:44:02;;;;;;;5.37;4.90;;;;;;;18.63;60.98;96840.37;1673550;85;20943;-80
2021/06/18 02:46:48;;;;;;;6.25;5.67;;;;;;;18.57;60.98;96840.72;1694044;84;21016;-79
2021/06/18 02:49:15;;;;;;;6.50;5.75;;;;;;;18.52;61.24;96845.81;1671850;85;20964;-80
2021/06/18 02:51:58;;;;;;;6.20;5.60;;;;;;;18.46;61.37;96848.02;1674500;85;20966;-80
2021/06/18 02:54:32;;;;;;;5.95;5.45;;;;;;;18.41;61.50;96843.14;1663291;85;20946;-80
2021/06/18 02:57:20;;;;;;;6.12;5.53;;;;;;;18.37;61.78;96851.95;1656888;85;21417;-80
2021/06/18 03:00:11;;;;;;;7.85;5.50;;;;;;;18.34;61.79;96852.91;1673908;85;21039;-80
2021/06/18 03:02:58;;;;;;;6.53;5.67;;;;;;;18.32;62.26;96856.28;1665401;85;21085;-81
2021/06/18 03:05:26;;;;;;;7.28;6.10;;;;;;;18.29;62.25;96866.22;1655540;86;20984;-81
2021/06/18 03:07:59;;;;;;;6.30;5.70;;;;;;;18.27;62.35;96863.52;1655579;87;20956;-79
2021/06/18 03:10:27;;;;;;;6.65;6.00;;;;;;;18.23;62.49;96867.10;1662843;86;21221;-80
2021/06/18 03:13:10;;;;;;;6.28;5.67;;;;;;;18.18;62.51;96860.86;1662881;86;20964;-80
2021/06/18 03:15:43;;;;;;;5.97;5.45;;;;;;;18.14;62.64;96865.77;1663060;86;20929;-80
2021/06/18 03:18:09;;;;;;;6.10;5.55;;;;;;;18.11;62.70;96861.45;1639909;87;21366;-80
2021/06/18 03:20:35;;;;;;;6.17;5.45;;;;;;;18.10;62.93;96862.48;1659008;86;20951;-80
2021/06/18 03:23:04;;;;;;;5.53;4.83;;;;;;;18.08;62.95;96865.33;1648212;86;20989;-80
2021/06/18 03:25:32;;;;;;;5.30;4.78;;;;;;;18.07;63.08;96865.03;1635311;86;20996;-80
2021/06/18 03:27:58;;;;;;;7.28;5.85;;;;;;;18.06;63.64;96863.43;1622932;86;20977;-80
2021/06/18 03:30:25;;;;;;;6.00;5.45;;;;;;;18.05;63.53;96860.98;1663151;86;21331;-80
2021/06/18 03:32:50;;;;;;;6.35;5.75;;;;;;;18.03;63.69;96857.27;1662845;86;21329;-80
2021/06/18 03:35:16;;;;;;;7.42;5.90;;;;;;;18.03;64.08;96860.41;1633646;88;20936;-80
2021/06/18 03:37:42;;;;;;;6.55;5.72;;;;;;;18.00;63.68;96865.08;1647122;87;20980;-81
2021/06/18 03:40:10;;;;;;;6.03;5.42;;;;;;;17.99;64.43;96858.21;1656608;86;20981;-80
2021/06/18 03:42:37;;;;;;;5.50;4.97;;;;;;;17.94;64.77;96859.89;1639158;86;21338;-81
2021/06/18 03:45:05;;;;;;;6.12;5.53;;;;;;;17.91;64.70;96867.70;1655959;86;21024;-80
2021/06/18 03:47:32;;;;;;;6.55;5.60;;;;;;;17.90;64.81;96866.10;1662690;86;21037;-80
2021/06/18 03:49:57;;;;;;;5.92;5.40;;;;;;;17.90;64.80;96872.67;1663127;86;21237;-81
2021/06/18 03:52:23;;;;;;;6.47;5.90;;;;;;;17.89;65.00;96871.03;1662842;86;20895;-80
2021/06/18 03:54:49;;;;;;;7.08;6.17;;;;;;;17.87;65.32;96867.02;1663203;86;21035;-80
2021/06/18 03:57:16;;;;;;;6.37;5.65;;;;;;;17.83;65.56;96864.53;1663198;86;20933;-81
2021/06/18 03:59:42;;;;;;;6.47;5.87;;;;;;;17.81;65.55;96873.95;1662416;86;20985;-80
2021/06/18 04:02:10;;;;;;;8.10;6.20;;;;;;;17.83;65.64;96873.73;1658664;86;21044;-79
2021/06/18 04:04:36;;;;;;;8.70;6.00;;;;;;;17.87;65.49;96883.59;1676276;85;21009;-80
2021/06/18 04:07:04;;;;;;;6.62;5.78;;;;;;;17.92;65.71;96885.09;1659117;85;21253;-80
2021/06/18 04:09:30;;;;;;;6.95;6.22;;;;;;;17.97;65.87;96880.48;1634239;86;21023;-80
2021/06/18 04:11:56;;;;;;;7.05;6.15;;;;;;;17.96;66.14;96888.89;1663482;85;20934;-80
2021/06/18 04:14:22;;;;;;;7.25;6.55;;;;;;;17.95;66.32;96883.84;1674391;85;20963;-80
2021/06/18 04:16:48;;;;;;;6.72;6.05;;;;;;;17.93;66.36;96888.01;1674597;85;21280;-80
2021/06/18 04:19:13;;;;;;;6.30;5.70;;;;;;;17.93;66.71;96887.20;1674257;85;21025;-80
2021/06/18 04:21:46;;;;;;;6.17;5.60;;;;;;;17.92;66.93;96883.77;1674546;85;20938;-80
2021/06/18 04:24:15;;;;;;;5.97;5.37;;;;;;;17.92;67.23;96880.34;1672325;85;20962;-81
2021/06/18 04:26:41;;;;;;;6.00;5.50;;;;;;;17.93;67.34;96881.95;1652885;86;20950;-80
2021/06/18 04:29:07;;;;;;;7.58;5.62;;;;;;;17.94;67.39;96886.19;1670531;85;21804;-80
2021/06/18 04:31:33;;;;;;;7.08;6.35;;;;;;;17.92;67.46;96881.66;1673263;85;20979;-80
2021/06/18 04:33:59;;;;;;;6.50;5.85;;;;;;;17.94;67.67;96883.05;1674623;85;20928;-80
2021/06/18 04:36:24;;;;;;;7.53;6.83;;;;;;;17.94;67.92;96885.67;1674524;85;21245;-80
2021/06/18 04:38:51;;;;;;;6.15;5.47;;;;;;;17.94;68.14;96884.36;1666703;85;20990;-81
2021/06/18 04:41:17;;;;;;;5.95;5.45;;;;;;;17.96;68.17;96882.83;1660051;85;21312;-80
2021/06/18 04:43:43;;;;;;;8.65;6.30;;;;;;;17.99;68.15;96880.56;1672245;85;21007;-80
2021/06/18 04:46:08;;;;;;;7.58;6.33;;;;;;;18.04;68.23;96886.98;1674594;85;20892;-80
2021/06/18 04:48:35;;;;;;;7.20;6.53;;;;;;;18.08;68.43;96890.31;1674443;85;20982;-80
2021/06/18 04:51:01;;;;;;;7.40;6.70;;;;;;;18.10;68.48;96890.89;1674359;85;20978;-80
2021/06/18 04:53:27;;;;;;;7.00;6.40;;;;;;;18.16;68.37;96889.21;1674381;85;20950;-80
2021/06/18 04:55:53;;;;;;;5.95;5.45;;;;;;;18.20;68.51;96890.38;1674232;85;21003;-80
2021/06/18 04:58:19;;;;;;;5.87;5.03;;;;;;;18.26;68.67;96894.79;1669557;85;21283;-80
2021/06/18 05:00:45;;;;;;;6.90;6.20;;;;;;;18.32;68.62;96897.86;1670103;85;20940;-80
2021/06/18 05:03:11;;;;;;;6.70;6.00;;;;;;;18.37;68.67;96891.42;1667669;85;21001;-80
2021/06/18 05:05:36;;;;;;;7.10;6.40;;;;;;;18.43;68.62;96895.83;1661596;85;21045;-80
2021/06/18 05:08:03;;;;;;;6.15;5.55;;;;;;;18.47;68.63;96898.30;1674359;85;21001;-81
2021/06/18 05:10:28;;;;;;;7.30;6.60;;;;;;;18.52;69.08;96891.87;1674396;85;20963;-80
2021/06/18 05:12:54;;;;;;;7.00;6.40;;;;;;;18.54;69.01;96893.77;1673774;86;20936;-81
2021/06/18 05:15:20;;;;;;;6.65;6.00;;;;;;;18.59;69.03;96892.61;1674326;85;20993;-80
2021/06/18 05:17:46;;;;;;;6.85;6.20;;;;;;;18.65;68.96;96894.09;1674332;86;21020;-80
2021/06/18 05:20:13;;;;;;;7.37;6.62;;;;;;;18.70;69.07;96898.98;1646672;86;21006;-80
2021/06/18 05:22:39;;;;;;;7.00;6.30;;;;;;;18.78;69.21;96901.84;1650409;85;20941;-80
2021/06/18 05:25:06;;;;;;;6.87;6.20;;;;;;;18.84;69.24;96904.39;1673291;85;21249;-80
2021/06/18 05:27:32;;;;;;;6.30;5.78;;;;;;;18.91;69.29;96902.20;1638201;87;20953;-80
2021/06/18 05:29:58;;;;;;;6.10;5.47;;;;;;;19.00;69.23;96905.61;1668897;85;20918;-80
2021/06/18 05:32:24;;;;;;;6.60;6.00;;;;;;;19.07;69.30;96905.55;1674359;85;21358;-80
2021/06/18 05:34:50;;;;;;;6.05;5.55;;;;;;;19.14;69.60;96912.33;1656819;86;20965;-80
2021/06/18 05:37:16;;;;;;;7.12;6.53;;;;;;;19.23;69.89;96910.20;1673140;85;20939;-80
2021/06/18 05:39:42;;;;;;;6.45;5.80;;;;;;;19.28;69.67;96911.64;1674617;85;20977;-80
2021/06/18 05:42:10;;;;;;;6.72;6.05;;;;;;;19.35;69.57;96908.91;1651018;85;21328;-80
2021/06/18 05:44:36;;;;;;;6.62;6.03;;;;;;;19.38;69.54;96909.80;1661362;85;20991;-81
2021/06/18 05:47:02;;;;;;;6.85;6.10;;;;;;;19.43;69.44;96912.55;1674600;85;20983;-81
2021/06/18 05:49:27;;;;;;;6.67;6.08;;;;;;;19.56;69.50;96913.72;1655804;85;21007;-80
2021/06/18 05:51:53;;;;;;;6.35;5.75;;;;;;;19.66;69.61;96915.78;1673944;86;20976;-80
2021/06/18 05:54:21;;;;;;;7.20;6.03;;;;;;;19.75;69.48;96915.77;1674005;85;21029;-81
2021/06/18 05:56:46;;;;;;;6.62;6.03;;;;;;;19.83;69.62;96918.05;1649348;86;21025;-80
2021/06/18 05:59:12;;;;;;;5.78;5.10;;;;;;;19.88;69.48;96917.39;1674603;85;20998;-81
2021/06/18 06:01:38;;;;;;;6.05;5.50;;;;;;;19.96;69.75;96915.21;1674529;85;20983;-80
2021/06/18 06:04:04;;;;;;;6.97;5.50;;;;;;;20.06;69.65;96918.09;1674658;85;21401;-81
2021/06/18 06:06:29;;;;;;;6.55;5.95;;;;;;;20.17;69.01;96913.04;1674389;85;21319;-80
2021/06/18 06:08:55;;;;;;;7.25;6.05;;;;;;;20.24;68.50;96904.51;1674636;85;20989;-80
2021/06/18 06:11:22;;;;;;;7.55;6.85;;;;;;;20.31;68.37;96905.98;1674547;85;20989;-81
2021/06/18 06:13:48;;;;;;;6.67;6.05;;;;;;;20.36;68.16;96897.40;1674489;85;20935;-80
2021/06/18 06:16:14;;;;;;;6.10;5.60;;;;;;;20.38;67.76;96900.09;1674469;85;20990;-81
2021/06/18 06:18:40;;;;;;;6.37;5.60;;;;;;;20.45;67.24;96898.66;1674692;85;21308;-81
2021/06/18 06:21:05;;;;;;;5.60;5.10;;;;;;;20.50;66.97;96900.60;1674661;85;20939;-80
2021/06/18 06:23:31;;;;;;;6.10;5.53;;;;;;;20.57;66.89;96902.62;1674585;85;20914;-80
2021/06/18 06:25:57;;;;;;;6.55;5.90;;;;;;;20.62;66.66;96906.67;1674602;85;20938;-80
2021/06/18 06:28:23;;;;;;;6.17;5.58;;;;;;;20.66;66.57;96903.84;1656711;86;21224;-81
2021/06/18 06:30:49;;;;;;;6.42;5.83;;;;;;;20.74;66.70;96907.98;1673696;85;21036;-81
2021/06/18 06:33:15;;;;;;;6.87;6.17;;;;;;;20.81;66.58;96902.04;1672572;85;21310;-80
2021/06/18 06:35:41;;;;;;;5.80;5.30;;;;;;;20.83;66.30;96906.59;1657474;85;20959;-80
2021/06/18 06:38:06;;;;;;;5.83;5.30;;;;;;;20.88;66.10;96915.41;1651344;86;20935;-80
2021/06/18 06:40:32;;;;;;;6.15;5.65;;;;;;;20.98;66.43;96918.76;1674460;85;20951;-80
2021/06/18 06:42:58;;;;;;;6.40;5.80;;;;;;;21.05;65.78;96914.68;1674623;85;20992;-80
2021/06/18 06:45:24;;;;;;;6.22;5.62;;;;;;;21.15;65.58;96919.65;1673938;85;20972;-81
2021/06/18 06:47:53;;;;;;;6.53;5.90;;;;;;;21.23;65.35;96918.45;1663371;85;21037;-80
2021/06/18 06:50:19;;;;;;;6.92;6.22;;;;;;;21.20;65.54;96919.73;1665255;85;20994;-81
2021/06/18 06:52:44;;;;;;;6.60;6.00;;;;;;;21.20;66.63;96918.94;1654819;85;21294;-81
2021/06/18 06:55:12;;;;;;;6.47;5.62;;;;;;;21.31;66.87;96914.65;1655303;86;20956;-80
2021/06/18 06:57:38;;;;;;;6.03;5.53;;;;;;;21.40;66.47;96911.41;1647291;86;21009;-81
2021/06/18 07:00:08;;;;;;;6.78;6.17;;;;;;;21.50;66.25;96908.95;1673362;85;20949;-80
2021/06/18 07:02:34;;;;;;;7.20;6.33;;;;;;;21.62;66.01;96908.06;1651443;85;21006;-80
2021/06/18 07:05:01;;;;;;;7.30;6.33;;;;;;;21.73;65.78;96909.84;1674367;85;21036;-80
2021/06/18 07:07:26;;;;;;;7.83;6.40;;;;;;;21.84;65.52;96905.02;1674611;85;21008;-80
2021/06/18 07:09:52;;;;;;;6.78;5.70;;;;;;;21.90;65.62;96905.37;1674640;85;20999;-80
2021/06/18 07:12:18;;;;;;;7.17;6.58;;;;;;;21.95;65.44;96901.47;1674479;85;20992;-81
2021/06/18 07:14:44;;;;;;;6.90;6.25;;;;;;;22.02;65.82;96903.45;1674502;85;20961;-80
2021/06/18 07:17:10;;;;;;;6.95;5.95;;;;;;;22.13;65.52;96902.59;1674382;85;20907;-80
2021/06/18 07:19:35;;;;;;;7.40;6.40;;;;;;;22.28;65.35;96901.99;1655276;85;21012;-80
2021/06/18 07:22:02;;;;;;;7.72;7.00;;;;;;;22.42;65.72;96896.63;1673937;85;21333;-80
2021/06/18 07:24:28;;;;;;;7.92;7.10;;;;;;;22.56;64.97;96895.77;1658304;85;21022;-80
2021/06/18 07:26:53;;;;;;;7.65;6.90;;;;;;;22.66;64.72;96887.95;1648692;86;21033;-80
2021/06/18 07:29:19;;;;;;;7.62;6.92;;;;;;;22.79;64.71;96897.92;1661779;85;21035;-81
2021/06/18 07:31:46;;;;;;;8.08;7.00;;;;;;;22.95;63.28;96889.94;1673998;85;21041;-80
2021/06/18 07:34:11;;;;;;;8.48;7.60;;;;;;;23.11;62.82;96896.20;1674119;86;21348;-80
2021/06/18 07:36:38;;;;;;;8.23;6.70;;;;;;;23.24;62.66;96895.79;1674478;85;20952;-80
2021/06/18 07:39:04;;;;;;;8.63;7.67;;;;;;;23.33;62.77;96896.16;1674221;85;21377;-81
2021/06/18 07:41:31;;;;;;;8.75;7.15;;;;;;;23.46;62.11;96890.98;1659014;86;21001;-80
2021/06/18 07:43:56;;;;;;;8.80;6.75;;;;;;;23.54;61.85;96893.97;1654629;85;20907;-81
2021/06/18 07:46:24;;;;;;;8.68;7.10;;;;;;;23.60;62.86;96887.70;1674597;85;20973;-80
2021/06/18 07:48:50;;;;;;;8.20;7.35;;;;;;;23.67;62.71;96890.14;1674365;85;21011;-80
2021/06/18 07:51:16;;;;;;;9.20;7.17;;;;;;;23.75;62.90;96897.62;1674223;85;21264;-81
2021/06/18 07:53:42;;;;;;;9.45;7.10;;;;;;;23.79;62.31;96895.28;1642960;87;21077;-81
2021/06/18 07:56:08;;;;;;;8.63;7.72;;;;;;;23.88;61.59;96893.22;1672105;85;20966;-81
2021/06/18 07:58:37;;;;;;;8.30;7.50;;;;;;;23.98;60.72;96893.84;1674399;85;21315;-81
2021/06/18 08:01:03;;;;;;;10.03;8.13;;;;;;;24.03;61.51;96889.08;1651404;86;21331;-80
2021/06/18 08:03:28;;;;;;;8.55;7.78;;;;;;;24.08;61.04;96885.13;1668265;85;21031;-81
2021/06/18 08:05:54;;;;;;;7.65;6.95;;;;;;;24.16;61.84;96892.10;1662998;86;20918;-81
2021/06/18 08:08:20;;;;;;;8.03;7.33;;;;;;;24.28;61.60;96895.11;1663011;86;20973;-81
2021/06/18 08:10:46;;;;;;;7.20;6.50;;;;;;;24.37;60.68;96892.25;1663024;86;20945;-81
2021/06/18 08:13:11;;;;;;;7.55;6.72;;;;;;;24.47;58.41;96887.01;1662876;86;20973;-81
2021/06/18 08:15:38;;;;;;;8.88;7.17;;;;;;;24.68;58.07;96882.59;1662727;86;20985;-81
2021/06/18 08:18:04;;;;;;;8.45;6.95;;;;;;;24.78;58.15;96883.97;1663097;86;21276;-81
2021/06/18 08:20:30;;;;;;;7.78;7.08;;;;;;;25.02;58.16;96879.02;1655037;86;21338;-81
2021/06/18 08:22:57;;;;;;;8.90;7.90;;;;;;;25.22;57.63;96886.25;1655142;87;20929;-81
2021/06/18 08:25:23;;;;;;;7.17;6.58;;;;;;;25.07;59.19;96887.03;1644273;86;21012;-80
2021/06/18 08:27:49;;;;;;;8.58;7.00;;;;;;;24.88;57.90;96889.84;1655265;87;21000;-81
2021/06/18 08:30:17;;;;;;;7.55;6.85;;;;;;;24.73;57.01;96887.41;1653709;86;20964;-80
2021/06/18 08:32:43;;;;;;;8.28;7.40;;;;;;;24.64;57.66;96890.81;1654983;86;21102;-81
2021/06/18 08:35:09;;;;;;;8.03;7.33;;;;;;;24.50;58.65;96890.47;1654691;86;20908;-81
2021/06/18 08:37:34;;;;;;;9.50;7.50;;;;;;;24.29;59.48;96891.39;1662711;86;20933;-80
2021/06/18 08:40:00;;;;;;;8.68;7.78;;;;;;;24.14;60.30;96893.42;1653683;86;21226;-81
2021/06/18 08:42:27;;;;;;;7.65;6.83;;;;;;;23.97;61.01;96883.48;1647304;86;20923;-80
2021/06/18 08:44:53;;;;;;;8.05;7.25;;;;;;;23.89;61.20;96890.84;1653581;86;21023;-81
2021/06/18 08:47:19;;;;;;;8.20;7.50;;;;;;;23.78;61.56;96889.18;1643800;86;21306;-81
2021/06/18 08:49:45;;;;;;;8.40;7.60;;;;;;;23.64;62.03;96887.99;1663809;85;20982;-81
2021/06/18 08:52:11;;;;;;;8.05;7.22;;;;;;;23.73;62.51;96884.34;1655124;86;21028;-81
2021/06/18 08:54:43;;;;;;;8.13;7.42;;;;;;;23.64;63.30;96882.69;1662901;86;20948;-81
2021/06/18 08:57:17;;;;;;;8.10;7.33;;;;;;;23.51;63.64;96882.54;1662929;86;21008;-80
2021/06/18 08:59:43;;;;;;;8.03;7.17;;;;;;;23.48;63.94;96876.42;1634549;87;21093;-80
2021/06/18 09:02:12;;;;;;;7.53;6.92;;;;;;;23.93;63.79;96866.73;1628701;88;21243;-80
2021/06/18 09:05:05;;;;;;;7.95;7.15;;;;;;;24.46;61.86;96865.49;1657277;86;21343;-80
2021/06/18 09:07:59;;;;;;;10.60;7.55;;;;;;;24.85;61.24;96855.28;1672309;86;20906;-81
2021/06/18 09:10:40;;;;;;;7.65;6.95;;;;;;;25.24;61.80;96857.55;1672289;86;21236;-80
2021/06/18 09:13:16;;;;;;;6.58;5.90;;;;;;;25.64;59.34;96854.92;1674143;86;20923;-80
2021/06/18 09:15:54;;;;;;;6.95;6.03;;;;;;;25.99;55.70;96852.00;1674022;86;20990;-80
2021/06/18 09:18:40;;;;;;;7.50;5.60;;;;;;;26.30;55.71;96850.88;1674480;86;20958;-81
2021/06/18 09:21:21;;;;;;;5.78;5.22;;;;;;;26.41;55.73;96848.22;1658254;86;21251;-81
2021/06/18 09:23:51;;;;;;;6.15;5.45;;;;;;;26.15;53.33;96844.25;1671094;86;20979;-80
2021/06/18 09:26:34;;;;;;;5.53;5.08;;;;;;;25.91;54.95;96844.03;1684753;85;21032;-81
2021/06/18 09:29:07;;;;;;;5.97;5.40;;;;;;;26.14;55.02;96843.19;1672213;85;21355;-80
2021/06/18 09:31:47;;;;;;;6.35;5.75;;;;;;;26.49;52.61;96837.78;1672392;86;20998;-81
2021/06/18 09:34:14;;;;;;;6.03;5.53;;;;;;;26.78;52.18;96833.94;1654048;86;21418;-81
2021/06/18 09:36:40;;;;;;;6.25;5.75;;;;;;;27.06;52.79;96843.70;1672488;86;20934;-81
2021/06/18 09:39:09;;;;;;;8.03;6.00;;;;;;;27.26;51.79;96844.11;1672509;86;21382;-81
2021/06/18 09:41:42;;;;;;;5.80;5.28;;;;;;;27.40;51.44;96847.22;1669893;86;21295;-81
2021/06/18 09:44:21;;;;;;;6.15;5.55;;;;;;;27.50;50.24;96842.36;1685889;85;21004;-80
2021/06/18 09:46:52;;;;;;;5.58;5.08;;;;;;;27.56;50.31;96839.09;1672434;86;20951;-80
2021/06/18 09:49:38;;;;;;;5.80;5.20;;;;;;;27.69;49.64;96836.62;1672448;86;20969;-81
2021/06/18 09:52:15;;;;;;;6.65;5.47;;;;;;;27.73;48.79;96838.98;1671705;86;21322;-80
2021/06/18 09:54:44;;;;;;;5.92;5.20;;;;;;;27.84;50.00;96839.70;1666863;86;21012;-81
2021/06/18 09:57:16;;;;;;;5.17;4.60;;;;;;;27.95;49.05;96829.70;1658446;86;20994;-81
2021/06/18 10:00:01;;;;;;;6.90;5.47;;;;;;;28.04;48.34;96841.38;1672402;86;21014;-80
2021/06/18 10:02:41;;;;;;;6.15;5.05;;;;;;;28.15;48.66;96830.03;1656355;86;21033;-81
2021/06/18 10:05:12;;;;;;;5.30;4.75;;;;;;;28.20;46.92;96830.80;1653749;86;21009;-81
2021/06/18 10:07:37;;;;;;;;;;;;;;;28.25;42.61;96823.25;1665527;86;20957;-81
2021/06/18 10:10:11;;;;;;;5.58;5.05;;;;;;;28.21;45.62;96823.57;1634936;87;20095;-80
2021/06/18 10:12:37;;;;;;;5.95;5.40;;;;;;;28.21;47.29;96827.58;1655219;86;21004;-80
2021/06/18 10:15:07;;;;;;;6.10;4.87;;;;;;;28.31;47.05;96826.15;1663207;86;21353;-80
2021/06/18 10:17:39;;;;;;;5.50;4.95;;;;;;;28.37;47.10;96825.83;1634803;87;20951;-80
2021/06/18 10:20:16;;;;;;;;;;;;;;;28.42;47.30;96825.50;1636303;88;21314;-81
2021/06/18 10:22:47;;;;;;;6.08;4.92;;;;;;;28.44;46.26;96824.67;1613916;88;20153;-81
2021/06/18 10:25:14;;;;;;;5.37;4.92;;;;;;;28.44;45.88;96827.34;1657934;86;21245;-81
2021/06/18 10:27:47;;;;;;;5.40;4.90;;;;;;;28.46;46.07;96826.52;1636198;86;21036;-81
2021/06/18 10:30:39;;;;;;;5.37;4.85;;;;;;;28.53;45.36;96824.31;1662597;86;21020;-81
2021/06/18 10:33:30;;;;;;;5.97;5.40;;;;;;;28.60;46.67;96820.20;1658925;86;21024;-81
2021/06/18 10:36:10;;;;;;;6.40;5.00;;;;;;;28.67;47.55;96828.68;1653413;87;20941;-80
2021/06/18 10:38:42;;;;;;;5.70;5.03;;;;;;;28.69;45.96;96824.38;1663134;86;21001;-80
2021/06/18 10:41:20;;;;;;;6.15;4.80;;;;;;;28.71;44.67;96832.91;1661164;86;21005;-81
2021/06/18 10:43:53;;;;;;;5.17;4.67;;;;;;;28.73;44.57;96825.39;1655131;86;21538;-81
2021/06/18 10:46:32;;;;;;;5.15;4.40;;;;;;;28.78;44.89;96817.84;1654411;86;20925;-81
2021/06/18 10:49:12;;;;;;;5.72;4.78;;;;;;;28.79;42.58;96817.55;1653066;87;20956;-80
2021/06/18 10:51:42;;;;;;;6.05;4.90;;;;;;;28.81;43.63;96807.92;1640794;87;20920;-81
2021/06/18 10:54:33;;;;;;;5.05;4.50;;;;;;;28.93;43.26;96807.76;1663029;86;21001;-81
2021/06/18 10:57:03;;;;;;;4.83;4.42;;;;;;;28.82;42.56;96802.83;1655797;86;20955;-80
2021/06/18 10:59:38;;;;;;;5.53;4.80;;;;;;;28.80;41.65;96814.33;1655594;87;21250;-80
2021/06/18 11:02:30;;;;;;;5.42;4.53;;;;;;;28.86;42.69;96807.34;1655603;86;21351;-81
2021/06/18 11:04:59;;;;;;;;;;;;;;;28.97;42.85;96810.67;1649930;85;21077;-80
2021/06/18 11:07:39;;;;;;;5.22;4.72;;;;;;;29.00;43.94;96808.75;1674445;85;20101;-80
2021/06/18 11:10:12;;;;;;;5.25;4.85;;;;;;;28.99;42.67;96808.50;1674263;85;20986;-81
2021/06/18 11:13:00;;;;;;;5.67;5.17;;;;;;;29.04;44.95;96812.98;1674513;85;21332;-81
2021/06/18 11:15:31;;;;;;;5.37;4.87;;;;;;;29.01;42.61;96806.33;1674503;85;20994;-81
2021/06/18 11:18:05;;;;;;;5.37;4.87;;;;;;;28.97;44.72;96802.66;1664524;85;21361;-81
2021/06/18 11:20:39;;;;;;;5.55;4.95;;;;;;;28.89;42.17;96800.61;1642702;85;21025;-81
2021/06/18 11:23:13;;;;;;;4.80;4.35;;;;;;;28.88;43.38;96796.34;1674013;85;21044;-81
2021/06/18 11:26:03;;;;;;;5.08;4.58;;;;;;;28.97;43.58;96797.30;1673916;85;20971;-81
2021/06/18 11:28:36;;;;;;;5.62;5.03;;;;;;;28.96;43.08;96798.36;1674469;85;20998;-81
2021/06/18 11:31:16;;;;;;;6.05;5.50;;;;;;;28.58;43.41;96798.84;1674415;85;21309;-82
2021/06/18 11:33:57;;;;;;;5.90;5.30;;;;;;;28.23;43.16;96799.49;1694104;84;21097;-82
2021/06/18 11:36:35;;;;;;;5.25;4.83;;;;;;;28.22;44.48;96787.22;1674532;85;21011;-82
2021/06/18 11:39:10;;;;;;;5.47;4.72;;;;;;;28.35;43.62;96784.44;1674587;85;21020;-81
2021/06/18 11:41:42;;;;;;;5.55;5.08;;;;;;;28.51;45.60;96776.48;1674647;86;21316;-82
2021/06/18 11:44:11;;;;;;;5.45;4.95;;;;;;;28.59;45.73;96782.52;1656293;85;20983;-82